createdAt,value
2019-03-03T00:01:33.885Z,78.46
2019-03-03T00:04:04.546Z,78.78
2019-03-03T00:06:34.722Z,78.77
2019-03-03T00:09:08.268Z,78.67
2019-03-03T00:11:39.441Z,78.75
2019-03-03T00:14:12.306Z,78.79
2019-03-03T00:16:42.939Z,78.56
2019-03-03T00:19:16.169Z,78.44
2019-03-03T00:21:49.342Z,78.31
2019-03-03T00:24:18.727Z,78.36
2019-03-03T00:26:52.203Z,78.41
2019-03-03T00:29:22.961Z,78.41
2019-03-03T00:31:54.482Z,78.56
2019-03-03T00:34:27.964Z,78.58
2019-03-03T00:38:01.614Z,78.38
2019-03-03T00:40:52.336Z,78.49
2019-03-03T00:43:29.750Z,78.64
2019-03-03T00:46:08.313Z,78.52
2019-03-03T00:48:50.445Z,78.48
2019-03-03T00:51:25.987Z,78.48
2019-03-03T00:56:03.960Z,78.64
2019-03-03T00:58:43.854Z,78.58
2019-03-03T01:01:25.350Z,78.52
2019-03-03T01:04:05.091Z,78.84
2019-03-03T01:07:41.972Z,78.78
2019-03-03T01:10:15.572Z,78.61
2019-03-03T01:12:59.802Z,78.71
2019-03-03T01:15:34.735Z,78.64
2019-03-03T01:18:09.999Z,78.55
2019-03-03T01:20:47.592Z,78.83
2019-03-03T01:24:25.676Z,78.70
2019-03-03T01:26:57.690Z,78.53
2019-03-03T01:29:28.946Z,78.64
2019-03-03T01:31:59.085Z,78.40
2019-03-03T01:34:32.140Z,78.66
2019-03-03T01:37:02.778Z,78.80
2019-03-03T01:39:35.032Z,78.44
2019-03-03T01:42:06.539Z,78.41
2019-03-03T01:44:36.843Z,78.41
2019-03-03T01:47:07.540Z,78.43
2019-03-03T01:49:41.792Z,78.47
2019-03-03T01:52:18.095Z,78.39
2019-03-03T01:54:49.511Z,78.41
2019-03-03T01:57:23.776Z,78.56
2019-03-03T01:59:55.671Z,78.54
2019-03-03T02:02:27.892Z,78.56
2019-03-03T02:05:00.912Z,78.72
2019-03-03T02:07:33.040Z,78.74
2019-03-03T02:10:02.469Z,79.16
2019-03-03T02:12:37.044Z,79.20
2019-03-03T02:15:08.373Z,79.24
2019-03-03T02:17:39.459Z,79.38
2019-03-03T02:20:10.596Z,79.35
2019-03-03T02:22:42.157Z,79.38
2019-03-03T02:25:13.711Z,79.24
2019-03-03T02:27:44.805Z,79.29
2019-03-03T02:30:20.335Z,79.41
2019-03-03T02:32:55.427Z,79.24
2019-03-03T02:35:30.409Z,79.21
2019-03-03T02:38:02.630Z,79.29
2019-03-03T02:40:31.854Z,79.25
2019-03-03T02:43:03.292Z,79.21
2019-03-03T02:45:37.649Z,79.36
2019-03-03T02:48:08.954Z,79.44
2019-03-03T02:50:38.227Z,79.51
2019-03-03T02:53:08.479Z,79.25
2019-03-03T02:55:38.565Z,79.26
2019-03-03T02:58:13.209Z,79.10
2019-03-03T03:00:46.806Z,79.06
2019-03-03T03:03:18.205Z,79.07
2019-03-03T03:06:00.598Z,79.08
2019-03-03T03:11:24.451Z,79.17
2019-03-03T03:14:16.052Z,79.16
2019-03-03T03:16:52.136Z,79.02
2019-03-03T03:19:27.436Z,79.46
2019-03-03T03:24:46.642Z,79.62
2019-03-03T03:27:29.433Z,79.49
2019-03-03T03:30:06.735Z,79.47
2019-03-03T03:32:43.804Z,79.75
2019-03-03T03:35:48.370Z,79.74
2019-03-03T03:41:08.332Z,79.94
2019-03-03T03:44:48.593Z,80.05
2019-03-03T03:47:27.510Z,80.08
2019-03-03T03:50:04.053Z,80.08
2019-03-03T03:52:38.197Z,80.34
2019-03-03T03:55:14.664Z,80.39
2019-03-03T03:57:51.859Z,80.47
2019-03-03T04:00:36.468Z,80.53
2019-03-03T04:05:17.540Z,80.57
2019-03-03T04:08:06.684Z,80.83
2019-03-03T04:10:49.949Z,80.66
2019-03-03T04:13:27.067Z,80.66
2019-03-03T04:16:09.629Z,80.74
2019-03-03T04:19:16.326Z,80.82
2019-03-03T04:21:53.478Z,80.72
2019-03-03T04:25:49.273Z,80.75
2019-03-03T04:28:29.898Z,80.52
2019-03-03T04:31:25.905Z,80.71
2019-03-03T04:34:01.236Z,80.53
2019-03-03T04:36:39.714Z,80.61
2019-03-03T04:39:16.342Z,80.74
2019-03-03T04:43:55.272Z,80.63
2019-03-03T04:46:37.326Z,80.78
2019-03-03T04:49:12.463Z,80.93
2019-03-03T04:51:59.500Z,80.86
2019-03-03T04:54:41.614Z,80.83
2019-03-03T04:57:23.746Z,80.81
2019-03-03T05:00:02.923Z,80.70
2019-03-03T05:02:39.455Z,80.83
2019-03-03T05:05:29.890Z,80.81
2019-03-03T05:08:15.868Z,80.76
2019-03-03T05:10:52.179Z,80.67
2019-03-03T05:13:29.951Z,80.81
2019-03-03T05:16:08.549Z,80.80
2019-03-03T05:19:14.968Z,80.64
2019-03-03T05:21:44.423Z,80.44
2019-03-03T05:24:14.241Z,80.61
2019-03-03T05:26:47.588Z,80.68
2019-03-03T05:29:21.980Z,80.84
2019-03-03T05:31:55.586Z,80.96
2019-03-03T05:34:26.013Z,80.87
2019-03-03T05:36:57.979Z,81.10
2019-03-03T05:39:32.525Z,81.24
2019-03-03T05:42:04.840Z,81.42
2019-03-03T05:44:38.297Z,81.46
2019-03-03T05:47:10.016Z,81.40
2019-03-03T05:49:41.200Z,81.57
2019-03-03T05:52:13.959Z,81.34
2019-03-03T05:54:45.240Z,81.42
2019-03-03T05:57:19.654Z,81.26
2019-03-03T05:59:51.444Z,81.35
2019-03-03T06:02:23.528Z,81.53
2019-03-03T06:04:54.600Z,81.38
2019-03-03T06:07:24.796Z,81.55
2019-03-03T06:09:54.988Z,81.67
2019-03-03T06:12:26.219Z,81.46
2019-03-03T06:14:55.492Z,81.71
2019-03-03T06:17:26.398Z,81.57
2019-03-03T06:19:59.151Z,81.38
2019-03-03T06:22:30.554Z,81.54
2019-03-03T06:25:01.460Z,81.63
2019-03-03T06:27:33.819Z,81.43
2019-03-03T06:30:07.227Z,81.44
2019-03-03T06:32:42.194Z,81.50
2019-03-03T06:35:14.162Z,81.54
2019-03-03T06:37:48.561Z,81.45
2019-03-03T06:40:20.765Z,81.43
2019-03-03T06:42:53.078Z,81.51
2019-03-03T06:45:27.478Z,81.78
2019-03-03T06:47:58.590Z,81.58
2019-03-03T06:50:28.769Z,81.72
2019-03-03T06:53:06.501Z,81.61
2019-03-03T06:55:42.525Z,81.89
2019-03-03T06:58:16.526Z,82.02
2019-03-03T07:00:50.813Z,81.94
2019-03-03T07:03:23.577Z,81.99
2019-03-03T07:05:53.089Z,81.97
2019-03-03T07:08:24.771Z,81.97
2019-03-03T07:10:56.560Z,82.20
2019-03-03T07:13:26.780Z,82.09
2019-03-03T07:15:57.282Z,82.19
2019-03-03T07:18:27.631Z,82.09
2019-03-03T07:23:39.194Z,82.20
2019-03-03T07:26:08.599Z,82.24
2019-03-03T07:28:38.676Z,82.58
2019-03-03T07:31:16.748Z,82.60
2019-03-03T07:33:52.864Z,82.76
2019-03-03T07:36:31.462Z,83.22
2019-03-03T07:39:00.885Z,83.67
2019-03-03T07:41:35.767Z,83.65
2019-03-03T07:44:08.122Z,83.28
2019-03-03T07:46:45.555Z,83.34
2019-03-03T07:49:21.328Z,82.94
2019-03-03T07:51:51.340Z,82.72
2019-03-03T07:54:27.564Z,82.51
2019-03-03T07:56:59.614Z,82.46
2019-03-03T07:59:29.236Z,82.26
2019-03-03T08:02:00.658Z,82.23
2019-03-03T08:04:37.096Z,82.33
2019-03-03T08:07:08.870Z,82.24
2019-03-03T08:09:38.934Z,81.95
2019-03-03T08:12:10.885Z,81.83
2019-03-03T08:14:51.121Z,81.75
2019-03-03T08:17:29.765Z,81.39
2019-03-03T08:20:06.445Z,81.04
2019-03-03T08:22:43.118Z,81.39
2019-03-03T08:25:23.162Z,81.02
2019-03-03T08:27:55.000Z,80.68
2019-03-03T08:30:28.060Z,80.76
2019-03-03T08:33:01.136Z,80.82
2019-03-03T08:35:36.596Z,80.67
2019-03-03T08:38:07.007Z,80.89
2019-03-03T08:40:36.905Z,80.43
2019-03-03T08:43:10.690Z,80.14
2019-03-03T08:47:02.897Z,80.31
2019-03-03T08:49:42.499Z,80.04
2019-03-03T08:52:25.926Z,80.21
2019-03-03T08:56:09.173Z,79.97
2019-03-03T08:59:46.188Z,79.83
2019-03-03T09:02:22.367Z,79.84
2019-03-03T09:05:01.292Z,79.73
2019-03-03T09:08:07.503Z,79.58
2019-03-03T09:12:55.762Z,79.57
2019-03-03T09:19:51.143Z,79.63
2019-03-03T09:22:26.724Z,78.90
2019-03-03T09:25:03.692Z,79.02
2019-03-03T09:27:42.757Z,79.18
2019-03-03T09:30:27.145Z,79.12
2019-03-03T09:35:07.591Z,79.17
2019-03-03T09:37:42.606Z,78.94
2019-03-03T09:40:20.320Z,78.95
2019-03-03T09:43:02.651Z,79.12
2019-03-03T09:46:11.363Z,79.39
2019-03-03T09:48:51.843Z,79.35
2019-03-03T09:52:26.765Z,79.51
2019-03-03T09:55:13.799Z,79.22
2019-03-03T09:58:24.247Z,79.73
2019-03-03T10:01:04.345Z,80.06
2019-03-03T10:03:47.405Z,80.26
2019-03-03T10:06:42.685Z,80.76
2019-03-03T10:10:18.897Z,80.87
2019-03-03T10:12:55.489Z,80.92
2019-03-03T10:15:30.603Z,81.03
2019-03-03T10:18:38.500Z,80.94
2019-03-03T10:21:18.589Z,80.80
2019-03-03T10:23:53.197Z,80.82
2019-03-03T10:28:33.393Z,80.68
2019-03-03T10:31:09.796Z,80.75
2019-03-03T10:33:48.870Z,80.74
2019-03-03T10:36:26.103Z,80.62
2019-03-03T10:39:08.151Z,80.97
2019-03-03T10:41:44.162Z,80.88
2019-03-03T10:44:22.929Z,81.10
2019-03-03T10:47:59.824Z,81.20
2019-03-03T10:51:07.104Z,81.10
2019-03-03T10:53:48.222Z,81.39
2019-03-03T10:56:44.305Z,81.49
2019-03-03T10:59:26.263Z,81.68
2019-03-03T11:03:08.737Z,81.79
2019-03-03T11:05:44.092Z,81.88
2019-03-03T11:09:24.422Z,81.88
2019-03-03T11:11:58.912Z,82.01
2019-03-03T11:16:39.389Z,82.07
2019-03-03T11:19:15.074Z,81.69
2019-03-03T11:21:50.457Z,81.54
2019-03-03T11:24:29.052Z,81.19
2019-03-03T11:27:05.063Z,80.93
2019-03-03T11:29:52.743Z,81.00
2019-03-03T11:32:36.545Z,81.03
2019-03-03T11:37:58.149Z,80.62
2019-03-03T11:40:35.463Z,80.11
2019-03-03T11:43:13.904Z,80.25
2019-03-03T11:45:49.026Z,79.98
2019-03-03T11:48:24.679Z,79.73
2019-03-03T11:51:06.967Z,79.69
2019-03-03T11:54:00.249Z,79.62
2019-03-03T11:56:35.892Z,79.41
2019-03-03T12:03:29.695Z,79.63
2019-03-03T12:06:25.202Z,79.29
2019-03-03T12:09:20.483Z,79.33
2019-03-03T12:11:57.478Z,79.70
2019-03-03T12:14:40.970Z,79.56
2019-03-03T12:17:17.718Z,80.10
2019-03-03T12:19:52.447Z,79.98
2019-03-03T12:22:28.802Z,80.06
2019-03-03T12:25:07.412Z,80.30
2019-03-03T12:27:54.398Z,80.27
2019-03-03T12:30:36.365Z,80.32
2019-03-03T12:33:17.641Z,80.11
2019-03-03T12:35:52.539Z,80.24
2019-03-03T12:38:33.053Z,80.19
2019-03-03T12:41:24.694Z,80.16
2019-03-03T12:44:06.212Z,79.97
2019-03-03T12:46:41.929Z,79.89
2019-03-03T12:49:25.411Z,79.76
2019-03-03T12:52:05.267Z,79.52
2019-03-03T12:54:44.653Z,79.75
2019-03-03T12:57:26.231Z,79.70
2019-03-03T13:00:06.230Z,79.77
2019-03-03T13:04:45.859Z,79.96
2019-03-03T13:08:22.219Z,79.88
2019-03-03T13:11:57.421Z,80.12
2019-03-03T13:17:25.509Z,80.43
2019-03-03T13:22:10.414Z,80.24
2019-03-03T13:29:33.363Z,80.59
2019-03-03T13:33:09.392Z,80.19
2019-03-03T13:36:00.409Z,80.12
2019-03-03T13:38:41.979Z,80.09
2019-03-03T13:42:27.869Z,80.33
2019-03-03T13:45:06.185Z,80.08
2019-03-03T13:47:39.838Z,80.01
2019-03-03T13:50:13.386Z,80.01
2019-03-03T13:52:47.390Z,80.33
2019-03-03T13:55:18.055Z,80.29
2019-03-03T13:57:55.840Z,80.46
2019-03-03T14:03:02.305Z,80.32
2019-03-03T14:05:33.028Z,80.55
2019-03-03T14:08:04.190Z,80.23
2019-03-03T14:10:38.624Z,80.05
2019-03-03T14:13:08.808Z,80.09
2019-03-03T14:15:38.513Z,79.33
2019-03-03T14:18:14.625Z,79.26
2019-03-03T14:20:44.695Z,78.72
2019-03-03T14:23:15.263Z,78.07
2019-03-03T14:25:51.910Z,77.96
2019-03-03T14:28:21.591Z,77.37
2019-03-03T14:30:54.140Z,76.99
2019-03-03T14:33:28.053Z,76.60
2019-03-03T14:35:58.685Z,76.08
2019-03-03T14:38:31.455Z,75.25
2019-03-03T14:41:02.936Z,74.69
2019-03-03T14:43:33.752Z,74.14
2019-03-03T14:46:11.933Z,73.69
2019-03-03T14:48:43.972Z,72.89
2019-03-03T14:51:20.273Z,72.58
2019-03-03T14:53:50.805Z,72.31
2019-03-03T14:56:21.293Z,72.08
2019-03-03T14:58:53.156Z,72.26
2019-03-03T15:01:22.439Z,72.60
2019-03-03T15:03:54.273Z,72.78
2019-03-03T15:06:24.671Z,72.94
2019-03-03T15:09:05.083Z,72.75
2019-03-03T15:11:43.431Z,72.92
2019-03-03T15:14:14.334Z,72.29
2019-03-03T15:16:44.736Z,71.54
2019-03-03T15:19:14.718Z,70.89
2019-03-03T15:21:44.603Z,70.93
2019-03-03T15:24:15.013Z,71.58
2019-03-03T15:26:54.305Z,71.19
2019-03-03T15:29:25.633Z,71.21
2019-03-03T15:31:56.257Z,71.27
2019-03-03T15:34:25.368Z,71.22
2019-03-03T15:36:55.947Z,71.45
2019-03-03T15:39:25.387Z,70.96
2019-03-03T15:41:57.922Z,71.01
2019-03-03T15:44:33.309Z,71.38
2019-03-03T15:47:06.581Z,71.93
2019-03-03T15:49:37.295Z,72.26
2019-03-03T15:52:12.689Z,71.50
2019-03-03T15:54:44.534Z,71.38
2019-03-03T15:57:19.165Z,71.09
2019-03-03T15:59:55.732Z,70.46
2019-03-03T16:02:26.664Z,70.91
2019-03-03T16:05:00.575Z,70.38
2019-03-03T16:07:35.989Z,70.27
2019-03-03T16:10:06.359Z,70.49
2019-03-03T16:12:38.974Z,70.26
2019-03-03T16:15:11.497Z,70.04
2019-03-03T16:17:42.877Z,70.21
2019-03-03T16:20:19.105Z,69.56
2019-03-03T16:22:53.072Z,69.81
2019-03-03T16:25:25.268Z,69.99
2019-03-03T16:28:00.562Z,70.60
2019-03-03T16:30:34.381Z,70.87
2019-03-03T16:33:07.280Z,71.22
2019-03-03T16:35:45.119Z,70.67
2019-03-03T16:38:16.997Z,70.99
2019-03-03T16:40:47.277Z,71.81
2019-03-03T16:43:17.472Z,71.27
2019-03-03T16:45:50.963Z,71.15
2019-03-03T16:48:21.129Z,70.83
2019-03-03T16:50:55.295Z,71.29
2019-03-03T16:53:25.669Z,71.32
2019-03-03T16:56:00.827Z,71.31
2019-03-03T16:58:33.754Z,71.15
2019-03-03T17:01:02.923Z,70.67
2019-03-03T17:03:32.980Z,70.49
2019-03-03T17:06:06.368Z,70.29
2019-03-03T17:11:24.455Z,70.57
2019-03-03T17:13:56.086Z,70.80
2019-03-03T17:16:28.319Z,70.54
2019-03-03T17:19:00.616Z,71.05
2019-03-03T17:21:31.332Z,71.73
2019-03-03T17:24:05.671Z,71.48
2019-03-03T17:29:14.111Z,71.24
2019-03-03T17:31:45.355Z,70.59
2019-03-03T17:34:15.939Z,71.23
2019-03-03T17:36:46.981Z,71.38
2019-03-03T17:39:17.665Z,71.06
2019-03-03T17:41:46.684Z,71.60
2019-03-03T17:44:21.787Z,71.85
2019-03-03T17:46:55.941Z,71.75
2019-03-03T17:49:31.262Z,72.18
2019-03-03T17:52:01.789Z,72.15
2019-03-03T17:54:34.355Z,72.57
2019-03-03T17:57:08.126Z,72.02
2019-03-03T17:59:44.211Z,71.62
2019-03-03T18:02:16.838Z,71.92
2019-03-03T18:04:49.891Z,71.77
2019-03-03T18:07:19.979Z,71.49
2019-03-03T18:09:50.507Z,71.17
2019-03-03T18:12:20.030Z,71.42
2019-03-03T18:14:56.351Z,70.74
2019-03-03T18:17:26.224Z,71.32
2019-03-03T18:19:58.237Z,71.08
2019-03-03T18:22:30.269Z,70.64
2019-03-03T18:25:02.811Z,70.51
2019-03-03T18:27:36.131Z,70.66
2019-03-03T18:30:10.046Z,70.42
2019-03-03T18:32:49.154Z,70.73
2019-03-03T18:35:20.102Z,70.46
2019-03-03T18:37:52.513Z,71.16
2019-03-03T18:40:28.383Z,71.66
2019-03-03T18:43:08.451Z,72.13
2019-03-03T18:45:45.293Z,71.87
2019-03-03T18:48:18.593Z,71.60
2019-03-03T18:50:53.618Z,72.04
2019-03-03T18:53:25.875Z,71.90
2019-03-03T18:55:55.408Z,72.02
2019-03-03T18:58:26.197Z,71.99
2019-03-03T19:01:01.527Z,72.08
2019-03-03T19:03:31.297Z,71.87
2019-03-03T19:06:06.453Z,71.68
2019-03-03T19:11:18.968Z,71.18
2019-03-03T19:13:54.633Z,71.23
2019-03-03T19:16:32.763Z,71.33
2019-03-03T19:19:03.517Z,71.12
2019-03-03T19:21:34.029Z,70.90
2019-03-03T19:24:07.786Z,70.71
2019-03-03T19:26:39.894Z,70.84
2019-03-03T19:29:16.020Z,71.10
2019-03-03T19:31:52.202Z,71.00
2019-03-03T19:34:29.418Z,71.23
2019-03-03T19:36:59.745Z,71.08
2019-03-03T19:39:37.222Z,71.37
2019-03-03T19:42:11.273Z,71.09
2019-03-03T19:44:47.039Z,71.23
2019-03-03T19:47:17.737Z,71.16
2019-03-03T19:49:47.926Z,71.24
2019-03-03T19:52:24.427Z,70.98
2019-03-03T19:55:02.485Z,70.99
2019-03-03T19:57:34.731Z,70.82
2019-03-03T20:00:05.415Z,71.02
2019-03-03T20:02:41.266Z,71.29
2019-03-03T20:05:13.797Z,71.55
2019-03-03T20:07:48.079Z,71.31
2019-03-03T20:10:26.305Z,71.33
2019-03-03T20:13:03.238Z,70.95
2019-03-03T20:15:37.158Z,71.07
2019-03-03T20:18:10.578Z,70.81
2019-03-03T20:20:44.658Z,70.57
2019-03-03T20:23:16.902Z,70.49
2019-03-03T20:28:26.642Z,70.42
2019-03-03T20:30:59.675Z,70.19
2019-03-03T20:33:32.665Z,70.15
2019-03-03T20:36:06.017Z,70.08
2019-03-03T20:38:39.570Z,69.98
2019-03-03T20:41:14.652Z,70.02
2019-03-03T20:43:48.178Z,69.97
2019-03-03T20:46:30.111Z,69.96
2019-03-03T20:49:07.027Z,69.88
2019-03-03T20:51:40.816Z,69.31
2019-03-03T20:54:18.594Z,69.23
2019-03-03T20:56:48.827Z,69.38
2019-03-03T20:59:24.294Z,69.15
2019-03-03T21:01:57.245Z,68.90
2019-03-03T21:04:28.759Z,68.88
2019-03-03T21:07:06.417Z,68.88
2019-03-03T21:09:39.109Z,68.63
2019-03-03T21:12:09.552Z,68.71
2019-03-03T21:14:40.387Z,68.62
2019-03-03T21:17:13.233Z,68.70
2019-03-03T21:19:45.581Z,68.61
2019-03-03T21:22:18.787Z,68.81
2019-03-03T21:24:51.078Z,68.54
2019-03-03T21:27:22.781Z,68.53
2019-03-03T21:29:53.501Z,68.48
2019-03-03T21:32:24.034Z,68.51
2019-03-03T21:34:56.432Z,68.57
2019-03-03T21:37:29.518Z,68.39
2019-03-03T21:40:00.794Z,68.32
2019-03-03T21:42:36.459Z,67.81
2019-03-03T21:45:09.941Z,67.91
2019-03-03T21:47:49.009Z,68.15
2019-03-03T21:50:24.043Z,68.28
2019-03-03T21:53:01.496Z,68.18
2019-03-03T21:55:31.794Z,68.10
2019-03-03T21:58:02.285Z,68.05
2019-03-03T22:00:39.370Z,68.11
2019-03-03T22:03:12.567Z,68.03
2019-03-03T22:05:44.139Z,67.93
2019-03-03T22:08:24.672Z,67.97
2019-03-03T22:10:59.145Z,67.83
2019-03-03T22:13:30.576Z,67.80
2019-03-03T22:16:01.805Z,68.25
2019-03-03T22:18:32.922Z,68.00
2019-03-03T22:21:03.874Z,68.05
2019-03-03T22:23:34.420Z,67.78
2019-03-03T22:26:09.897Z,67.97
2019-03-03T22:28:39.590Z,67.86
2019-03-03T22:31:09.625Z,67.99
2019-03-03T22:33:42.599Z,67.96
2019-03-03T22:36:13.316Z,67.89
2019-03-03T22:38:47.444Z,68.11
2019-03-03T22:44:39.121Z,67.84
2019-03-03T22:47:13.303Z,68.04
2019-03-03T22:49:53.975Z,68.13
2019-03-03T22:52:30.096Z,68.12
2019-03-03T22:55:00.917Z,68.18
2019-03-03T22:57:37.730Z,68.03
2019-03-03T23:00:18.418Z,68.21
2019-03-03T23:02:50.037Z,68.25
2019-03-03T23:05:30.247Z,68.20
2019-03-03T23:08:11.549Z,68.05
2019-03-03T23:10:52.009Z,68.39
2019-03-03T23:13:35.033Z,68.31
2019-03-03T23:16:20.550Z,68.42
2019-03-03T23:19:20.982Z,68.46
2019-03-03T23:24:04.670Z,68.13
2019-03-03T23:26:35.947Z,68.15
2019-03-03T23:29:12.207Z,68.04
2019-03-03T23:31:49.189Z,68.23
2019-03-03T23:34:22.577Z,68.21
2019-03-03T23:36:53.144Z,67.98
2019-03-03T23:39:25.314Z,68.13
2019-03-03T23:41:58.811Z,68.37
2019-03-03T23:44:31.098Z,68.67
2019-03-03T23:47:02.173Z,68.82
2019-03-03T23:49:32.955Z,68.98
2019-03-03T23:52:05.047Z,68.94
2019-03-03T23:54:39.968Z,68.74
2019-03-03T23:57:09.188Z,68.86
2019-03-03T23:59:40.974Z,69.01
